GIA009 WAHS-WIII
Flight info
| Callsign | GIA009 |
|---|---|
| Flight time | N/A |
| Altitude | 34000 |
| Route | KIDET W16 IMU |
| Aircraft | B738/M-SDE2E3FGHIRWXY/LB1 |
Departure
| Time | 2026-04-25 17:08 |
|---|---|
| Airport | Jenderal Ahmad Yani Airport (WAHS) |
Arrival
| Time | N/A |
|---|---|
| Airport | Soekarno-Hatta International Airport (WIII) |
| Time | Latitude | Longitude | Altitude | Speed | Heading |
|---|---|---|---|---|---|
| 2026-04-25 16:15 | -6.96692 | 110.37420 | 18 ft | 0 kts | 41° |
| 2026-04-25 16:58 | -6.96704 | 110.37409 | 21 ft | 4 kts | 36° |
| 2026-04-25 16:58 | -6.96727 | 110.37395 | 21 ft | 4 kts | 21° |
| 2026-04-25 16:59 | -6.96752 | 110.37390 | 20 ft | 4 kts | 348° |
| 2026-04-25 16:59 | -6.96768 | 110.37397 | 18 ft | 1 kts | 310° |
| 2026-04-25 16:59 | -6.96770 | 110.37400 | 18 ft | 0 kts | 310° |
| 2026-04-25 17:02 | -6.96764 | 110.37392 | 18 ft | 5 kts | 310° |
| 2026-04-25 17:03 | -6.96718 | 110.37339 | 18 ft | 14 kts | 310° |
| 2026-04-25 17:03 | -6.96657 | 110.37267 | 19 ft | 11 kts | 310° |
| 2026-04-25 17:03 | -6.96619 | 110.37209 | 18 ft | 0 kts | 274° |
| 2026-04-25 17:03 | -6.96619 | 110.37208 | 18 ft | 1 kts | 268° |
| 2026-04-25 17:04 | -6.96629 | 110.37190 | 17 ft | 5 kts | 231° |
| 2026-04-25 17:04 | -6.96677 | 110.37147 | 17 ft | 15 kts | 219° |
| 2026-04-25 17:04 | -6.96779 | 110.37062 | 7 ft | 21 kts | 221° |
| 2026-04-25 17:04 | -6.96747 | 110.36951 | 5 ft | 22 kts | 311° |
| 2026-04-25 17:05 | -6.96627 | 110.36807 | 5 ft | 32 kts | 310° |
| 2026-04-25 17:05 | -6.96377 | 110.36514 | 4 ft | 23 kts | 310° |
| 2026-04-25 17:05 | -6.96295 | 110.36407 | 3 ft | 9 kts | 289° |
| 2026-04-25 17:06 | -6.96263 | 110.36347 | 3 ft | 8 kts | 340° |
| 2026-04-25 17:06 | -6.96241 | 110.36364 | 3 ft | 6 kts | 90° |
| 2026-04-25 17:06 | -6.96270 | 110.36390 | 4 ft | 0 kts | 130° |
| 2026-04-25 17:07 | -6.96408 | 110.36551 | 4 ft | 68 kts | 130° |
| 2026-04-25 17:07 | -6.96864 | 110.37090 | 5 ft | 135 kts | 132° |
| 2026-04-25 17:08 | -6.97577 | 110.37932 | 217 ft | 171 kts | 129° |
| 2026-04-25 17:08 | -6.98287 | 110.38857 | 1057 ft | 169 kts | 122° |
| 2026-04-25 17:08 | -6.98740 | 110.39946 | 1829 ft | 167 kts | 110° |
| 2026-04-25 17:08 | -6.99201 | 110.41116 | 2211 ft | 196 kts | 111° |
| 2026-04-25 17:09 | -6.99752 | 110.42469 | 2450 ft | 221 kts | 112° |
| 2026-04-25 17:09 | -7.00367 | 110.43962 | 2817 ft | 236 kts | 112° |
| 2026-04-25 17:09 | -7.01003 | 110.45497 | 3468 ft | 240 kts | 111° |
| 2026-04-25 17:09 | -7.01650 | 110.47052 | 4281 ft | 241 kts | 111° |
| 2026-04-25 17:10 | -7.02299 | 110.48614 | 5078 ft | 243 kts | 110° |
| 2026-04-25 17:10 | -7.02614 | 110.50284 | 5777 ft | 246 kts | 85° |
| 2026-04-25 17:10 | -7.02196 | 110.51941 | 6514 ft | 248 kts | 63° |
| 2026-04-25 17:10 | -7.01172 | 110.53339 | 7204 ft | 251 kts | 43° |